Terminal Aerodrome Forecast
Issued by NWS St Louis, MO

Home | Current Version | Previous Version | Text Only | Print | Product List | Glossary On
Versions: 1 2 3 4 5 6 7 8 9 10 11 12 13 14 15 16 17 18 19 20 21 22 23 24 25 26 27 28 29 30 31 32 33
803
FTUS43 KLSX 222004 AAA
TAFSTL
TAF AMD
KSTL 222004Z 2220/2324 12009KT 4SM BR OVC005
     FM230300 11006KT 2SM -SHRA BR VCTS OVC004CB
     FM230900 19006KT 3SM BR OVC003
     FM231500 27008KT 5SM BR OVC010
     FM232100 29006KT P6SM SCT030 BKN080=

USA.gov is the U.S. government's official web portal to all federal, state and local government web resources and services.